sensor_id;sensor_type;location;lat;lon;timestamp;P1;P2;P0
51052;PMS5003;37093;37.716;-122.060;2024-03-06T00:01:51;0;0;
51052;PMS5003;37093;37.716;-122.060;2024-03-06T00:04:16;0;0;
51052;PMS5003;37093;37.716;-122.060;2024-03-06T00:06:44;0;0;
51052;PMS5003;37093;37.716;-122.060;2024-03-06T00:09:11;1;0;
51052;PMS5003;37093;37.716;-122.060;2024-03-06T00:11:33;0;0;
51052;PMS5003;37093;37.716;-122.060;2024-03-06T00:13:58;0;0;
51052;PMS5003;37093;37.716;-122.060;2024-03-06T00:16:23;0;0;
51052;PMS5003;37093;37.716;-122.060;2024-03-06T00:18:49;0;0;
51052;PMS5003;37093;37.716;-122.060;2024-03-06T00:21:15;0;0;
51052;PMS5003;37093;37.716;-122.060;2024-03-06T00:23:38;0;0;
51052;PMS5003;37093;37.716;-122.060;2024-03-06T00:26:07;0;0;
51052;PMS5003;37093;37.716;-122.060;2024-03-06T00:28:29;0;0;
51052;PMS5003;37093;37.716;-122.060;2024-03-06T00:30:57;0;0;
51052;PMS5003;37093;37.716;-122.060;2024-03-06T00:33:19;0;0;
51052;PMS5003;37093;37.716;-122.060;2024-03-06T00:35:45;0;0;
51052;PMS5003;37093;37.716;-122.060;2024-03-06T00:38:10;0;0;
51052;PMS5003;37093;37.716;-122.060;2024-03-06T00:40:34;0;0;
51052;PMS5003;37093;37.716;-122.060;2024-03-06T00:43:00;1;0;
51052;PMS5003;37093;37.716;-122.060;2024-03-06T00:45:26;1;0;
51052;PMS5003;37093;37.716;-122.060;2024-03-06T00:47:50;0;0;
51052;PMS5003;37093;37.716;-122.060;2024-03-06T00:50:16;0;0;
51052;PMS5003;37093;37.716;-122.060;2024-03-06T00:52:40;1;0;
51052;PMS5003;37093;37.716;-122.060;2024-03-06T00:55:05;0;0;
51052;PMS5003;37093;37.716;-122.060;2024-03-06T00:57:31;0;0;
51052;PMS5003;37093;37.716;-122.060;2024-03-06T01:00:02;1;0;
51052;PMS5003;37093;37.716;-122.060;2024-03-06T01:02:19;2;0;
51052;PMS5003;37093;37.716;-122.060;2024-03-06T01:04:44;0;0;
51052;PMS5003;37093;37.716;-122.060;2024-03-06T01:07:10;0;0;
51052;PMS5003;37093;37.716;-122.060;2024-03-06T01:09:35;11;9;
51052;PMS5003;37093;37.716;-122.060;2024-03-06T01:12:01;26;16;
51052;PMS5003;37093;37.716;-122.060;2024-03-06T01:14:26;9;9;
51052;PMS5003;37093;37.716;-122.060;2024-03-06T01:16:51;4;3;
51052;PMS5003;37093;37.716;-122.060;2024-03-06T01:19:17;1;1;
51052;PMS5003;37093;37.716;-122.060;2024-03-06T01:21:44;0;0;
51052;PMS5003;37093;37.716;-122.060;2024-03-06T01:24:07;11;7;
51052;PMS5003;37093;37.716;-122.060;2024-03-06T01:26:33;6;6;
51052;PMS5003;37093;37.716;-122.060;2024-03-06T01:29:00;20;19;
51052;PMS5003;37093;37.716;-122.060;2024-03-06T01:31:24;7;7;
51052;PMS5003;37093;37.716;-122.060;2024-03-06T01:33:53;4;3;
51052;PMS5003;37093;37.716;-122.060;2024-03-06T01:36:15;1;1;
51052;PMS5003;37093;37.716;-122.060;2024-03-06T01:38:40;2;1;
51052;PMS5003;37093;37.716;-122.060;2024-03-06T01:41:04;2;1;
51052;PMS5003;37093;37.716;-122.060;2024-03-06T01:43:36;1;0;
51052;PMS5003;37093;37.716;-122.060;2024-03-06T01:45:56;2;2;
51052;PMS5003;37093;37.716;-122.060;2024-03-06T01:48:21;3;1;
51052;PMS5003;37093;37.716;-122.060;2024-03-06T01:50:45;1;1;
51052;PMS5003;37093;37.716;-122.060;2024-03-06T01:53:10;0;0;
51052;PMS5003;37093;37.716;-122.060;2024-03-06T01:55:35;1;1;
51052;PMS5003;37093;37.716;-122.060;2024-03-06T01:58:00;0;0;
51052;PMS5003;37093;37.716;-122.060;2024-03-06T02:00:25;0;0;
51052;PMS5003;37093;37.716;-122.060;2024-03-06T02:02:50;0;0;
51052;PMS5003;37093;37.716;-122.060;2024-03-06T02:05:19;1;1;
51052;PMS5003;37093;37.716;-122.060;2024-03-06T02:07:41;0;0;
51052;PMS5003;37093;37.716;-122.060;2024-03-06T02:10:07;0;0;
51052;PMS5003;37093;37.716;-122.060;2024-03-06T02:12:31;1;0;
51052;PMS5003;37093;37.716;-122.060;2024-03-06T02:14:56;1;0;
51052;PMS5003;37093;37.716;-122.060;2024-03-06T02:17:30;1;0;
51052;PMS5003;37093;37.716;-122.060;2024-03-06T02:19:46;0;0;
51052;PMS5003;37093;37.716;-122.060;2024-03-06T02:22:16;0;0;
51052;PMS5003;37093;37.716;-122.060;2024-03-06T02:24:42;0;0;
51052;PMS5003;37093;37.716;-122.060;2024-03-06T02:27:03;0;0;
51052;PMS5003;37093;37.716;-122.060;2024-03-06T02:29:27;0;0;
51052;PMS5003;37093;37.716;-122.060;2024-03-06T02:31:53;1;1;
51052;PMS5003;37093;37.716;-122.060;2024-03-06T02:34:18;0;0;
51052;PMS5003;37093;37.716;-122.060;2024-03-06T02:36:42;0;0;
51052;PMS5003;37093;37.716;-122.060;2024-03-06T02:39:07;2;1;
51052;PMS5003;37093;37.716;-122.060;2024-03-06T02:41:33;0;0;
51052;PMS5003;37093;37.716;-122.060;2024-03-06T02:43:58;0;0;
51052;PMS5003;37093;37.716;-122.060;2024-03-06T02:46:23;0;0;
51052;PMS5003;37093;37.716;-122.060;2024-03-06T02:48:49;0;0;
51052;PMS5003;37093;37.716;-122.060;2024-03-06T02:51:18;0;0;
51052;PMS5003;37093;37.716;-122.060;2024-03-06T02:53:39;1;0;
51052;PMS5003;37093;37.716;-122.060;2024-03-06T02:56:04;0;0;
51052;PMS5003;37093;37.716;-122.060;2024-03-06T02:58:29;0;0;
51052;PMS5003;37093;37.716;-122.060;2024-03-06T03:00:55;0;0;
51052;PMS5003;37093;37.716;-122.060;2024-03-06T03:03:19;1;1;
51052;PMS5003;37093;37.716;-122.060;2024-03-06T03:05:45;2;1;
51052;PMS5003;37093;37.716;-122.060;2024-03-06T03:08:09;2;1;
51052;PMS5003;37093;37.716;-122.060;2024-03-06T03:10:40;1;1;
51052;PMS5003;37093;37.716;-122.060;2024-03-06T03:13:01;1;1;
51052;PMS5003;37093;37.716;-122.060;2024-03-06T03:15:25;1;0;
51052;PMS5003;37093;37.716;-122.060;2024-03-06T03:17:50;2;1;
51052;PMS5003;37093;37.716;-122.060;2024-03-06T03:20:15;4;1;
51052;PMS5003;37093;37.716;-122.060;2024-03-06T03:22:41;1;1;
51052;PMS5003;37093;37.716;-122.060;2024-03-06T03:25:09;0;0;
51052;PMS5003;37093;37.716;-122.060;2024-03-06T03:27:31;0;0;
51052;PMS5003;37093;37.716;-122.060;2024-03-06T03:29:56;1;1;
51052;PMS5003;37093;37.716;-122.060;2024-03-06T03:32:21;0;0;
51052;PMS5003;37093;37.716;-122.060;2024-03-06T03:34:46;0;0;
51052;PMS5003;37093;37.716;-122.060;2024-03-06T03:37:14;0;0;
51052;PMS5003;37093;37.716;-122.060;2024-03-06T03:39:45;1;1;
51052;PMS5003;37093;37.716;-122.060;2024-03-06T03:42:07;0;0;
51052;PMS5003;37093;37.716;-122.060;2024-03-06T03:44:26;1;1;
51052;PMS5003;37093;37.716;-122.060;2024-03-06T03:46:53;0;0;
51052;PMS5003;37093;37.716;-122.060;2024-03-06T03:49:38;1;1;
51052;PMS5003;37093;37.716;-122.060;2024-03-06T03:51:43;0;0;
51052;PMS5003;37093;37.716;-122.060;2024-03-06T03:54:07;1;0;
51052;PMS5003;37093;37.716;-122.060;2024-03-06T03:56:32;0;0;
51052;PMS5003;37093;37.716;-122.060;2024-03-06T03:58:57;3;0;
51052;PMS5003;37093;37.716;-122.060;2024-03-06T04:01:26;0;0;
51052;PMS5003;37093;37.716;-122.060;2024-03-06T04:03:48;0;0;
51052;PMS5003;37093;37.716;-122.060;2024-03-06T04:06:12;0;0;
51052;PMS5003;37093;37.716;-122.060;2024-03-06T04:08:37;0;0;
51052;PMS5003;37093;37.716;-122.060;2024-03-06T04:11:14;1;1;
51052;PMS5003;37093;37.716;-122.060;2024-03-06T04:13:30;0;0;
51052;PMS5003;37093;37.716;-122.060;2024-03-06T04:16:01;4;4;
51052;PMS5003;37093;37.716;-122.060;2024-03-06T04:18:23;2;2;
51052;PMS5003;37093;37.716;-122.060;2024-03-06T04:20:45;1;1;
51052;PMS5003;37093;37.716;-122.060;2024-03-06T04:23:13;0;0;
51052;PMS5003;37093;37.716;-122.060;2024-03-06T04:25:35;1;0;
51052;PMS5003;37093;37.716;-122.060;2024-03-06T04:28:00;1;0;
51052;PMS5003;37093;37.716;-122.060;2024-03-06T04:30:25;1;0;
51052;PMS5003;37093;37.716;-122.060;2024-03-06T04:32:57;0;0;
51052;PMS5003;37093;37.716;-122.060;2024-03-06T04:35:16;0;0;
51052;PMS5003;37093;37.716;-122.060;2024-03-06T04:37:42;0;0;
51052;PMS5003;37093;37.716;-122.060;2024-03-06T04:40:09;0;0;
51052;PMS5003;37093;37.716;-122.060;2024-03-06T04:42:34;0;0;
51052;PMS5003;37093;37.716;-122.060;2024-03-06T04:45:00;1;0;
51052;PMS5003;37093;37.716;-122.060;2024-03-06T04:47:24;1;1;
51052;PMS5003;37093;37.716;-122.060;2024-03-06T04:49:49;0;0;
51052;PMS5003;37093;37.716;-122.060;2024-03-06T04:52:11;0;0;
51052;PMS5003;37093;37.716;-122.060;2024-03-06T04:54:37;0;0;
51052;PMS5003;37093;37.716;-122.060;2024-03-06T04:57:02;0;0;
51052;PMS5003;37093;37.716;-122.060;2024-03-06T04:59:27;0;0;
51052;PMS5003;37093;37.716;-122.060;2024-03-06T05:01:55;0;0;
51052;PMS5003;37093;37.716;-122.060;2024-03-06T05:04:18;1;0;
51052;PMS5003;37093;37.716;-122.060;2024-03-06T05:06:42;0;0;
51052;PMS5003;37093;37.716;-122.060;2024-03-06T05:09:08;1;0;
51052;PMS5003;37093;37.716;-122.060;2024-03-06T05:11:32;0;0;
51052;PMS5003;37093;37.716;-122.060;2024-03-06T05:13:58;1;0;
51052;PMS5003;37093;37.716;-122.060;2024-03-06T05:16:24;0;0;
51052;PMS5003;37093;37.716;-122.060;2024-03-06T05:18:47;0;0;
51052;PMS5003;37093;37.716;-122.060;2024-03-06T05:21:12;1;1;
51052;PMS5003;37093;37.716;-122.060;2024-03-06T05:23:38;1;1;
51052;PMS5003;37093;37.716;-122.060;2024-03-06T05:26:03;0;0;
51052;PMS5003;37093;37.716;-122.060;2024-03-06T05:28:27;3;0;
51052;PMS5003;37093;37.716;-122.060;2024-03-06T05:30:56;1;1;
51052;PMS5003;37093;37.716;-122.060;2024-03-06T05:33:19;1;1;
51052;PMS5003;37093;37.716;-122.060;2024-03-06T05:35:46;1;1;
51052;PMS5003;37093;37.716;-122.060;2024-03-06T05:38:09;0;0;
51052;PMS5003;37093;37.716;-122.060;2024-03-06T05:40:33;1;1;
51052;PMS5003;37093;37.716;-122.060;2024-03-06T05:42:59;0;0;
51052;PMS5003;37093;37.716;-122.060;2024-03-06T05:45:23;0;0;
51052;PMS5003;37093;37.716;-122.060;2024-03-06T05:47:50;1;1;
51052;PMS5003;37093;37.716;-122.060;2024-03-06T05:50:16;1;1;
51052;PMS5003;37093;37.716;-122.060;2024-03-06T05:52:39;2;2;
51052;PMS5003;37093;37.716;-122.060;2024-03-06T05:55:05;3;3;
51052;PMS5003;37093;37.716;-122.060;2024-03-06T05:57:30;3;3;
51052;PMS5003;37093;37.716;-122.060;2024-03-06T05:59:55;2;2;
51052;PMS5003;37093;37.716;-122.060;2024-03-06T06:02:24;1;1;
51052;PMS5003;37093;37.716;-122.060;2024-03-06T06:04:45;1;1;
51052;PMS5003;37093;37.716;-122.060;2024-03-06T06:07:10;2;0;
51052;PMS5003;37093;37.716;-122.060;2024-03-06T06:09:35;2;1;
51052;PMS5003;37093;37.716;-122.060;2024-03-06T06:12:00;0;0;
51052;PMS5003;37093;37.716;-122.060;2024-03-06T06:14:27;0;0;
51052;PMS5003;37093;37.716;-122.060;2024-03-06T06:16:50;1;1;
51052;PMS5003;37093;37.716;-122.060;2024-03-06T06:19:15;0;0;
51052;PMS5003;37093;37.716;-122.060;2024-03-06T06:21:40;2;0;
51052;PMS5003;37093;37.716;-122.060;2024-03-06T06:24:05;2;2;
51052;PMS5003;37093;37.716;-122.060;2024-03-06T06:26:31;0;0;
51052;PMS5003;37093;37.716;-122.060;2024-03-06T06:28:56;13;2;
51052;PMS5003;37093;37.716;-122.060;2024-03-06T06:31:22;1;0;
51052;PMS5003;37093;37.716;-122.060;2024-03-06T06:33:48;0;0;
51052;PMS5003;37093;37.716;-122.060;2024-03-06T06:36:11;3;1;
51052;PMS5003;37093;37.716;-122.060;2024-03-06T06:38:37;0;0;
51052;PMS5003;37093;37.716;-122.060;2024-03-06T06:41:02;1;1;
51052;PMS5003;37093;37.716;-122.060;2024-03-06T06:43:27;1;1;
51052;PMS5003;37093;37.716;-122.060;2024-03-06T06:45:53;1;1;
51052;PMS5003;37093;37.716;-122.060;2024-03-06T06:48:17;1;1;
51052;PMS5003;37093;37.716;-122.060;2024-03-06T06:50:44;1;0;
51052;PMS5003;37093;37.716;-122.060;2024-03-06T06:53:07;0;0;
51052;PMS5003;37093;37.716;-122.060;2024-03-06T06:55:32;2;1;
51052;PMS5003;37093;37.716;-122.060;2024-03-06T06:57:57;1;1;
51052;PMS5003;37093;37.716;-122.060;2024-03-06T07:00:24;0;0;
51052;PMS5003;37093;37.716;-122.060;2024-03-06T07:02:50;0;0;
51052;PMS5003;37093;37.716;-122.060;2024-03-06T07:05:12;0;0;
51052;PMS5003;37093;37.716;-122.060;2024-03-06T07:07:37;0;0;
51052;PMS5003;37093;37.716;-122.060;2024-03-06T07:10:02;2;0;
51052;PMS5003;37093;37.716;-122.060;2024-03-06T07:12:27;1;1;
51052;PMS5003;37093;37.716;-122.060;2024-03-06T07:14:53;0;0;
51052;PMS5003;37093;37.716;-122.060;2024-03-06T07:17:18;0;0;
51052;PMS5003;37093;37.716;-122.060;2024-03-06T07:19:42;0;0;
51052;PMS5003;37093;37.716;-122.060;2024-03-06T07:22:08;1;1;
51052;PMS5003;37093;37.716;-122.060;2024-03-06T07:24:32;0;0;
51052;PMS5003;37093;37.716;-122.060;2024-03-06T07:26:59;1;1;
51052;PMS5003;37093;37.716;-122.060;2024-03-06T07:29:23;2;0;
51052;PMS5003;37093;37.716;-122.060;2024-03-06T07:31:48;0;0;
51052;PMS5003;37093;37.716;-122.060;2024-03-06T07:34:43;2;2;
51052;PMS5003;37093;37.716;-122.060;2024-03-06T07:37:04;0;0;
51052;PMS5003;37093;37.716;-122.060;2024-03-06T07:39:29;0;0;
51052;PMS5003;37093;37.716;-122.060;2024-03-06T07:41:56;2;0;
51052;PMS5003;37093;37.716;-122.060;2024-03-06T07:44:19;1;1;
51052;PMS5003;37093;37.716;-122.060;2024-03-06T07:46:54;0;0;
51052;PMS5003;37093;37.716;-122.060;2024-03-06T07:49:11;0;0;
51052;PMS5003;37093;37.716;-122.060;2024-03-06T07:51:34;0;0;
51052;PMS5003;37093;37.716;-122.060;2024-03-06T07:54:00;0;0;
51052;PMS5003;37093;37.716;-122.060;2024-03-06T07:56:24;0;0;
51052;PMS5003;37093;37.716;-122.060;2024-03-06T07:58:50;0;0;
51052;PMS5003;37093;37.716;-122.060;2024-03-06T08:01:15;0;0;
51052;PMS5003;37093;37.716;-122.060;2024-03-06T08:03:41;1;1;
51052;PMS5003;37093;37.716;-122.060;2024-03-06T08:06:06;0;0;
51052;PMS5003;37093;37.716;-122.060;2024-03-06T08:08:29;0;0;
51052;PMS5003;37093;37.716;-122.060;2024-03-06T08:10:55;0;0;
51052;PMS5003;37093;37.716;-122.060;2024-03-06T08:13:20;0;0;
51052;PMS5003;37093;37.716;-122.060;2024-03-06T08:15:44;0;0;
51052;PMS5003;37093;37.716;-122.060;2024-03-06T08:18:10;1;0;
51052;PMS5003;37093;37.716;-122.060;2024-03-06T08:20:36;0;0;
51052;PMS5003;37093;37.716;-122.060;2024-03-06T08:22:59;0;0;
51052;PMS5003;37093;37.716;-122.060;2024-03-06T08:25:26;0;0;
51052;PMS5003;37093;37.716;-122.060;2024-03-06T08:27:50;0;0;
51052;PMS5003;37093;37.716;-122.060;2024-03-06T08:30:15;0;0;
51052;PMS5003;37093;37.716;-122.060;2024-03-06T08:32:42;0;0;
51052;PMS5003;37093;37.716;-122.060;2024-03-06T08:35:05;2;1;
51052;PMS5003;37093;37.716;-122.060;2024-03-06T08:37:31;0;0;
51052;PMS5003;37093;37.716;-122.060;2024-03-06T08:39:56;0;0;
51052;PMS5003;37093;37.716;-122.060;2024-03-06T08:42:21;0;0;
51052;PMS5003;37093;37.716;-122.060;2024-03-06T08:44:46;0;0;
51052;PMS5003;37093;37.716;-122.060;2024-03-06T08:47:11;0;0;
51052;PMS5003;37093;37.716;-122.060;2024-03-06T08:49:37;3;0;
51052;PMS5003;37093;37.716;-122.060;2024-03-06T08:52:01;1;0;
51052;PMS5003;37093;37.716;-122.060;2024-03-06T08:54:27;0;0;
51052;PMS5003;37093;37.716;-122.060;2024-03-06T08:56:53;0;0;
51052;PMS5003;37093;37.716;-122.060;2024-03-06T08:59:16;0;0;
51052;PMS5003;37093;37.716;-122.060;2024-03-06T09:01:43;2;0;
51052;PMS5003;37093;37.716;-122.060;2024-03-06T09:04:06;0;0;
51052;PMS5003;37093;37.716;-122.060;2024-03-06T09:06:31;0;0;
51052;PMS5003;37093;37.716;-122.060;2024-03-06T09:08:56;1;1;
51052;PMS5003;37093;37.716;-122.060;2024-03-06T09:11:21;3;0;
51052;PMS5003;37093;37.716;-122.060;2024-03-06T09:13:54;0;0;
51052;PMS5003;37093;37.716;-122.060;2024-03-06T09:16:12;0;0;
51052;PMS5003;37093;37.716;-122.060;2024-03-06T09:18:40;0;0;
51052;PMS5003;37093;37.716;-122.060;2024-03-06T09:21:05;0;0;
51052;PMS5003;37093;37.716;-122.060;2024-03-06T09:23:28;0;0;
51052;PMS5003;37093;37.716;-122.060;2024-03-06T09:25:54;0;0;
51052;PMS5003;37093;37.716;-122.060;2024-03-06T09:28:20;0;0;
51052;PMS5003;37093;37.716;-122.060;2024-03-06T09:30:42;0;0;
51052;PMS5003;37093;37.716;-122.060;2024-03-06T09:33:07;0;0;
51052;PMS5003;37093;37.716;-122.060;2024-03-06T09:35:33;0;0;
51052;PMS5003;37093;37.716;-122.060;2024-03-06T09:37:58;0;0;
51052;PMS5003;37093;37.716;-122.060;2024-03-06T09:40:23;0;0;
51052;PMS5003;37093;37.716;-122.060;2024-03-06T09:42:47;0;0;
51052;PMS5003;37093;37.716;-122.060;2024-03-06T09:45:12;0;0;
51052;PMS5003;37093;37.716;-122.060;2024-03-06T09:47:37;2;0;
51052;PMS5003;37093;37.716;-122.060;2024-03-06T09:50:03;1;0;
51052;PMS5003;37093;37.716;-122.060;2024-03-06T09:52:27;0;0;
51052;PMS5003;37093;37.716;-122.060;2024-03-06T09:54:53;0;0;
51052;PMS5003;37093;37.716;-122.060;2024-03-06T09:57:18;0;0;
51052;PMS5003;37093;37.716;-122.060;2024-03-06T09:59:42;0;0;
51052;PMS5003;37093;37.716;-122.060;2024-03-06T10:02:14;0;0;
51052;PMS5003;37093;37.716;-122.060;2024-03-06T10:04:35;0;0;
51052;PMS5003;37093;37.716;-122.060;2024-03-06T10:07:00;2;0;
51052;PMS5003;37093;37.716;-122.060;2024-03-06T10:09:23;0;0;
51052;PMS5003;37093;37.716;-122.060;2024-03-06T10:11:48;0;0;
51052;PMS5003;37093;37.716;-122.060;2024-03-06T10:14:13;0;0;
51052;PMS5003;37093;37.716;-122.060;2024-03-06T10:16:51;0;0;
51052;PMS5003;37093;37.716;-122.060;2024-03-06T10:19:15;0;0;
51052;PMS5003;37093;37.716;-122.060;2024-03-06T10:21:32;1;0;
51052;PMS5003;37093;37.716;-122.060;2024-03-06T10:23:57;1;0;
51052;PMS5003;37093;37.716;-122.060;2024-03-06T10:26:19;0;0;
51052;PMS5003;37093;37.716;-122.060;2024-03-06T10:28:45;1;0;
51052;PMS5003;37093;37.716;-122.060;2024-03-06T10:31:08;0;0;
51052;PMS5003;37093;37.716;-122.060;2024-03-06T10:33:35;0;0;
51052;PMS5003;37093;37.716;-122.060;2024-03-06T10:35:59;0;0;
51052;PMS5003;37093;37.716;-122.060;2024-03-06T10:38:25;0;0;
51052;PMS5003;37093;37.716;-122.060;2024-03-06T10:40:50;0;0;
51052;PMS5003;37093;37.716;-122.060;2024-03-06T10:43:13;0;0;
51052;PMS5003;37093;37.716;-122.060;2024-03-06T10:45:41;2;0;
51052;PMS5003;37093;37.716;-122.060;2024-03-06T10:48:05;0;0;
51052;PMS5003;37093;37.716;-122.060;2024-03-06T10:50:30;0;0;
51052;PMS5003;37093;37.716;-122.060;2024-03-06T10:52:55;0;0;
51052;PMS5003;37093;37.716;-122.060;2024-03-06T10:55:19;0;0;
51052;PMS5003;37093;37.716;-122.060;2024-03-06T10:57:44;0;0;
51052;PMS5003;37093;37.716;-122.060;2024-03-06T11:00:10;0;0;
51052;PMS5003;37093;37.716;-122.060;2024-03-06T11:02:34;0;0;
51052;PMS5003;37093;37.716;-122.060;2024-03-06T11:05:00;0;0;
51052;PMS5003;37093;37.716;-122.060;2024-03-06T11:07:25;0;0;
51052;PMS5003;37093;37.716;-122.060;2024-03-06T11:09:50;1;0;
51052;PMS5003;37093;37.716;-122.060;2024-03-06T11:12:38;0;0;
51052;PMS5003;37093;37.716;-122.060;2024-03-06T11:14:41;0;0;
51052;PMS5003;37093;37.716;-122.060;2024-03-06T11:17:05;0;0;
51052;PMS5003;37093;37.716;-122.060;2024-03-06T11:19:30;0;0;
51052;PMS5003;37093;37.716;-122.060;2024-03-06T11:21:55;0;0;
51052;PMS5003;37093;37.716;-122.060;2024-03-06T11:24:32;0;0;
51052;PMS5003;37093;37.716;-122.060;2024-03-06T11:26:47;0;0;
51052;PMS5003;37093;37.716;-122.060;2024-03-06T11:29:10;0;0;
51052;PMS5003;37093;37.716;-122.060;2024-03-06T11:31:35;0;0;
51052;PMS5003;37093;37.716;-122.060;2024-03-06T11:34:01;0;0;
51052;PMS5003;37093;37.716;-122.060;2024-03-06T11:36:26;0;0;
51052;PMS5003;37093;37.716;-122.060;2024-03-06T11:39:00;0;0;
51052;PMS5003;37093;37.716;-122.060;2024-03-06T11:41:16;0;0;
51052;PMS5003;37093;37.716;-122.060;2024-03-06T11:43:42;0;0;
51052;PMS5003;37093;37.716;-122.060;2024-03-06T11:46:09;0;0;
51052;PMS5003;37093;37.716;-122.060;2024-03-06T11:48:31;0;0;
51052;PMS5003;37093;37.716;-122.060;2024-03-06T11:50:55;0;0;
51052;PMS5003;37093;37.716;-122.060;2024-03-06T11:53:20;0;0;
51052;PMS5003;37093;37.716;-122.060;2024-03-06T11:55:46;0;0;
51052;PMS5003;37093;37.716;-122.060;2024-03-06T11:58:10;0;0;
51052;PMS5003;37093;37.716;-122.060;2024-03-06T12:00:38;0;0;
51052;PMS5003;37093;37.716;-122.060;2024-03-06T12:03:00;0;0;
51052;PMS5003;37093;37.716;-122.060;2024-03-06T12:05:27;1;0;
51052;PMS5003;37093;37.716;-122.060;2024-03-06T12:07:53;0;0;
51052;PMS5003;37093;37.716;-122.060;2024-03-06T12:10:18;0;0;
51052;PMS5003;37093;37.716;-122.060;2024-03-06T12:12:42;2;0;
51052;PMS5003;37093;37.716;-122.060;2024-03-06T12:15:06;0;0;
51052;PMS5003;37093;37.716;-122.060;2024-03-06T12:17:44;1;0;
51052;PMS5003;37093;37.716;-122.060;2024-03-06T12:19:56;1;0;
51052;PMS5003;37093;37.716;-122.060;2024-03-06T12:22:25;0;0;
51052;PMS5003;37093;37.716;-122.060;2024-03-06T12:24:47;1;1;
51052;PMS5003;37093;37.716;-122.060;2024-03-06T12:27:11;6;1;
51052;PMS5003;37093;37.716;-122.060;2024-03-06T12:29:36;0;0;
51052;PMS5003;37093;37.716;-122.060;2024-03-06T12:32:25;1;1;
51052;PMS5003;37093;37.716;-122.060;2024-03-06T12:34:29;1;0;
51052;PMS5003;37093;37.716;-122.060;2024-03-06T12:36:55;0;0;
51052;PMS5003;37093;37.716;-122.060;2024-03-06T12:39:18;0;0;
51052;PMS5003;37093;37.716;-122.060;2024-03-06T12:41:44;1;0;
51052;PMS5003;37093;37.716;-122.060;2024-03-06T12:44:09;0;0;
51052;PMS5003;37093;37.716;-122.060;2024-03-06T12:46:36;0;0;
51052;PMS5003;37093;37.716;-122.060;2024-03-06T12:49:01;0;0;
51052;PMS5003;37093;37.716;-122.060;2024-03-06T12:51:24;0;0;
51052;PMS5003;37093;37.716;-122.060;2024-03-06T12:53:49;4;1;
51052;PMS5003;37093;37.716;-122.060;2024-03-06T12:56:14;0;0;
51052;PMS5003;37093;37.716;-122.060;2024-03-06T12:58:39;0;0;
51052;PMS5003;37093;37.716;-122.060;2024-03-06T13:01:05;0;0;
51052;PMS5003;37093;37.716;-122.060;2024-03-06T13:03:29;0;0;
51052;PMS5003;37093;37.716;-122.060;2024-03-06T13:05:55;0;0;
51052;PMS5003;37093;37.716;-122.060;2024-03-06T13:08:21;1;0;
51052;PMS5003;37093;37.716;-122.060;2024-03-06T13:10:46;0;0;
51052;PMS5003;37093;37.716;-122.060;2024-03-06T13:13:11;1;1;
51052;PMS5003;37093;37.716;-122.060;2024-03-06T13:16:12;0;0;
51052;PMS5003;37093;37.716;-122.060;2024-03-06T13:18:32;0;0;
51052;PMS5003;37093;37.716;-122.060;2024-03-06T13:21:03;0;0;
51052;PMS5003;37093;37.716;-122.060;2024-03-06T13:23:23;0;0;
51052;PMS5003;37093;37.716;-122.060;2024-03-06T13:25:49;1;1;
51052;PMS5003;37093;37.716;-122.060;2024-03-06T13:28:14;0;0;
51052;PMS5003;37093;37.716;-122.060;2024-03-06T13:30:39;0;0;
51052;PMS5003;37093;37.716;-122.060;2024-03-06T13:33:05;0;0;
51052;PMS5003;37093;37.716;-122.060;2024-03-06T13:35:31;0;0;
51052;PMS5003;37093;37.716;-122.060;2024-03-06T13:38:00;1;0;
51052;PMS5003;37093;37.716;-122.060;2024-03-06T13:40:21;0;0;
51052;PMS5003;37093;37.716;-122.060;2024-03-06T13:42:44;0;0;
51052;PMS5003;37093;37.716;-122.060;2024-03-06T13:45:10;0;0;
51052;PMS5003;37093;37.716;-122.060;2024-03-06T13:47:36;0;0;
51052;PMS5003;37093;37.716;-122.060;2024-03-06T13:50:01;0;0;
51052;PMS5003;37093;37.716;-122.060;2024-03-06T13:52:25;0;0;
51052;PMS5003;37093;37.716;-122.060;2024-03-06T13:54:51;0;0;
51052;PMS5003;37093;37.716;-122.060;2024-03-06T13:57:15;1;0;
51052;PMS5003;37093;37.716;-122.060;2024-03-06T13:59:41;0;0;
51052;PMS5003;37093;37.716;-122.060;2024-03-06T14:02:05;0;0;
51052;PMS5003;37093;37.716;-122.060;2024-03-06T14:04:30;0;0;
51052;PMS5003;37093;37.716;-122.060;2024-03-06T14:06:55;1;1;
51052;PMS5003;37093;37.716;-122.060;2024-03-06T14:09:22;0;0;
51052;PMS5003;37093;37.716;-122.060;2024-03-06T14:11:46;0;0;
51052;PMS5003;37093;37.716;-122.060;2024-03-06T14:14:11;0;0;
51052;PMS5003;37093;37.716;-122.060;2024-03-06T14:16:37;0;0;
51052;PMS5003;37093;37.716;-122.060;2024-03-06T14:19:01;0;0;
51052;PMS5003;37093;37.716;-122.060;2024-03-06T14:21:25;0;0;
51052;PMS5003;37093;37.716;-122.060;2024-03-06T14:23:51;0;0;
51052;PMS5003;37093;37.716;-122.060;2024-03-06T14:26:16;0;0;
51052;PMS5003;37093;37.716;-122.060;2024-03-06T14:28:57;0;0;
51052;PMS5003;37093;37.716;-122.060;2024-03-06T14:31:05;0;0;
51052;PMS5003;37093;37.716;-122.060;2024-03-06T14:33:39;0;0;
51052;PMS5003;37093;37.716;-122.060;2024-03-06T14:35:59;0;0;
51052;PMS5003;37093;37.716;-122.060;2024-03-06T14:38:21;0;0;
51052;PMS5003;37093;37.716;-122.060;2024-03-06T14:40:46;0;0;
51052;PMS5003;37093;37.716;-122.060;2024-03-06T14:43:17;0;0;
51052;PMS5003;37093;37.716;-122.060;2024-03-06T14:45:37;2;0;
51052;PMS5003;37093;37.716;-122.060;2024-03-06T14:48:02;0;0;
51052;PMS5003;37093;37.716;-122.060;2024-03-06T14:50:32;0;0;
51052;PMS5003;37093;37.716;-122.060;2024-03-06T14:52:59;0;0;
51052;PMS5003;37093;37.716;-122.060;2024-03-06T14:55:20;0;0;
51052;PMS5003;37093;37.716;-122.060;2024-03-06T14:57:41;0;0;
51052;PMS5003;37093;37.716;-122.060;2024-03-06T15:00:08;1;1;
51052;PMS5003;37093;37.716;-122.060;2024-03-06T15:02:35;0;0;
51052;PMS5003;37093;37.716;-122.060;2024-03-06T15:04:57;0;0;
51052;PMS5003;37093;37.716;-122.060;2024-03-06T15:07:23;0;0;
51052;PMS5003;37093;37.716;-122.060;2024-03-06T15:09:47;0;0;
51052;PMS5003;37093;37.716;-122.060;2024-03-06T15:12:16;1;1;
51052;PMS5003;37093;37.716;-122.060;2024-03-06T15:14:42;1;0;
51052;PMS5003;37093;37.716;-122.060;2024-03-06T15:17:06;0;0;
51052;PMS5003;37093;37.716;-122.060;2024-03-06T15:19:27;1;0;
51052;PMS5003;37093;37.716;-122.060;2024-03-06T15:22:03;0;0;
51052;PMS5003;37093;37.716;-122.060;2024-03-06T15:24:17;0;0;
51052;PMS5003;37093;37.716;-122.060;2024-03-06T15:26:45;0;0;
51052;PMS5003;37093;37.716;-122.060;2024-03-06T15:29:08;0;0;
51052;PMS5003;37093;37.716;-122.060;2024-03-06T15:31:32;0;0;
51052;PMS5003;37093;37.716;-122.060;2024-03-06T15:33:57;0;0;
51052;PMS5003;37093;37.716;-122.060;2024-03-06T15:36:23;0;0;
51052;PMS5003;37093;37.716;-122.060;2024-03-06T15:38:47;0;0;
51052;PMS5003;37093;37.716;-122.060;2024-03-06T15:41:13;0;0;
51052;PMS5003;37093;37.716;-122.060;2024-03-06T15:43:38;0;0;
51052;PMS5003;37093;37.716;-122.060;2024-03-06T15:46:03;0;0;
51052;PMS5003;37093;37.716;-122.060;2024-03-06T15:48:29;0;0;